Time;durP1;ratioP1;P1;durP2;ratioP2;P2;SDS_P1;SDS_P2;PMS_P1;PMS_P2;Temp;Humidity;BMP_temperature;BMP_pressure;BME280_temperature;BME280_humidity;BME280_pressure;Samples;Min_cycle;Max_cycle;Signal;HPM_P1;HPM_P2
2021/09/27 00:01:39;;;;;;;23.23;21.07;;;15.90;99.90;;;;;;5010985;28;20458;-68
2021/09/27 00:04:08;;;;;;;23.23;20.90;;;15.90;99.90;;;;;;5011886;28;20486;-70
2021/09/27 00:06:35;;;;;;;22.57;20.67;;;16.00;99.90;;;;;;5009839;28;20457;-68
2021/09/27 00:09:02;;;;;;;24.43;20.20;;;16.00;99.90;;;;;;5007549;28;20465;-68
2021/09/27 00:11:28;;;;;;;22.10;20.40;;;16.10;99.90;;;;;;5014210;28;20854;-71
2021/09/27 00:13:59;;;;;;;21.43;19.83;;;16.20;99.90;;;;;;5014138;28;20485;-69
2021/09/27 00:16:28;;;;;;;20.20;18.70;;;16.30;99.90;;;;;;5017184;28;20500;-69
2021/09/27 00:18:56;;;;;;;21.47;19.67;;;16.40;99.90;;;;;;5014735;28;20464;-68
2021/09/27 00:21:28;;;;;;;21.87;19.97;;;16.50;99.90;;;;;;5018592;27;20470;-70
2021/09/27 00:23:56;;;;;;;21.43;19.83;;;16.50;99.90;;;;;;5019583;27;20803;-70
2021/09/27 00:26:23;;;;;;;23.10;21.00;;;16.40;99.90;;;;;;5012677;27;20982;-68
2021/09/27 00:28:51;;;;;;;23.23;20.63;;;16.30;99.90;;;;;;5008947;28;20472;-69
2021/09/27 00:31:18;;;;;;;23.30;19.97;;;16.30;99.90;;;;;;5013697;28;20497;-71
2021/09/27 00:33:47;;;;;;;21.93;20.43;;;16.30;99.90;;;;;;5017285;28;20835;-71
2021/09/27 00:36:15;;;;;;;23.03;20.97;;;16.20;99.90;;;;;;5013311;28;20461;-70
2021/09/27 00:38:44;;;;;;;24.23;21.90;;;16.20;99.90;;;;;;5013610;28;20453;-69
2021/09/27 00:41:14;;;;;;;24.20;22.17;;;16.10;99.90;;;;;;5010269;28;20465;-69
2021/09/27 00:43:42;;;;;;;25.63;22.93;;;16.00;99.90;;;;;;5015494;28;21256;-68
2021/09/27 00:46:11;;;;;;;23.97;21.83;;;15.90;99.90;;;;;;5017726;28;20946;-72
2021/09/27 00:48:41;;;;;;;24.37;22.20;;;15.80;99.90;;;;;;5010721;28;20454;-68
2021/09/27 00:51:11;;;;;;;24.97;22.97;;;15.70;99.90;;;;;;5012301;27;20492;-69
2021/09/27 00:53:41;;;;;;;22.83;20.93;;;15.70;99.90;;;;;;5009828;28;20452;-69
2021/09/27 00:56:13;;;;;;;22.60;20.60;;;15.70;99.90;;;;;;5013187;28;20640;-70
2021/09/27 00:58:40;;;;;;;22.73;21.00;;;15.70;99.90;;;;;;5015036;28;20826;-68
2021/09/27 01:01:08;;;;;;;24.30;22.20;;;15.60;99.90;;;;;;5011303;28;20454;-69
2021/09/27 01:03:35;;;;;;;24.90;23.00;;;15.60;99.90;;;;;;5011172;28;20481;-69
2021/09/27 01:06:18;;;;;;;23.50;21.40;;;15.50;99.90;;;;;;5012280;28;20974;-68
2021/09/27 01:08:55;;;;;;;25.07;21.97;;;15.50;99.90;;;;;;5011675;28;20464;-69
2021/09/27 01:11:38;;;;;;;25.47;22.70;;;15.40;99.90;;;;;;5011538;28;20484;-70
2021/09/27 01:14:19;;;;;;;24.37;22.17;;;15.40;99.90;;;;;;5012238;28;20474;-69
2021/09/27 01:16:54;;;;;;;25.97;23.27;;;15.30;99.90;;;;;;5006486;28;20469;-72
2021/09/27 01:19:51;;;;;;;27.93;24.10;;;15.30;99.90;;;;;;5008600;28;20464;-69
2021/09/27 01:22:36;;;;;;;26.60;24.03;;;15.30;99.90;;;;;;5024192;27;21157;-71
2021/09/27 01:25:23;;;;;;;25.73;23.23;;;15.20;99.90;;;;;;5010806;28;20469;-69
2021/09/27 01:28:18;;;;;;;24.73;22.10;;;15.30;99.90;;;;;;5010521;28;20545;-68
2021/09/27 01:30:59;;;;;;;25.53;23.10;;;15.30;99.90;;;;;;5014928;28;20513;-70
2021/09/27 01:33:34;;;;;;;28.33;23.17;;;15.30;99.90;;;;;;5009046;28;20469;-69
2021/09/27 01:36:13;;;;;;;24.83;22.33;;;15.20;99.90;;;;;;5005792;28;20822;-69
2021/09/27 01:38:48;;;;;;;24.27;21.90;;;15.20;99.90;;;;;;5012648;28;20460;-72
2021/09/27 01:41:28;;;;;;;29.03;22.50;;;15.20;99.90;;;;;;5013496;28;20468;-69
2021/09/27 01:44:06;;;;;;;26.17;23.17;;;15.20;99.90;;;;;;5004613;28;20468;-71
2021/09/27 01:46:41;;;;;;;38.33;23.57;;;15.10;99.90;;;;;;5010591;28;20453;-71
2021/09/27 01:49:14;;;;;;;31.67;23.27;;;15.10;99.90;;;;;;5012533;28;20454;-72
2021/09/27 01:51:51;;;;;;;40.10;24.33;;;15.10;99.90;;;;;;5011836;28;20492;-70
2021/09/27 01:54:24;;;;;;;28.40;24.90;;;15.00;99.90;;;;;;5009701;28;20457;-69
2021/09/27 01:56:59;;;;;;;30.87;23.20;;;15.00;99.90;;;;;;5009663;28;20472;-72
2021/09/27 01:59:37;;;;;;;27.20;22.97;;;15.00;99.90;;;;;;5013606;28;20468;-68
2021/09/27 02:02:08;;;;;;;26.37;23.57;;;15.00;99.90;;;;;;5008681;28;20475;-69
2021/09/27 02:04:45;;;;;;;26.80;24.00;;;14.90;99.90;;;;;;5014636;28;20564;-69
2021/09/27 02:07:16;;;;;;;26.53;24.23;;;14.90;99.90;;;;;;5009445;28;20468;-69
2021/09/27 02:09:52;;;;;;;29.37;24.40;;;14.90;99.90;;;;;;5010269;28;20562;-72
2021/09/27 02:12:24;;;;;;;30.23;24.93;;;14.90;99.90;;;;;;5005362;28;20456;-68
2021/09/27 02:14:57;;;;;;;27.50;24.10;;;14.90;99.90;;;;;;5011330;28;20529;-69
2021/09/27 02:17:32;;;;;;;30.83;24.50;;;14.90;99.90;;;;;;5012947;28;20458;-68
2021/09/27 02:20:10;;;;;;;26.90;24.17;;;14.80;99.90;;;;;;5010643;28;20460;-72
2021/09/27 02:22:43;;;;;;;32.30;23.20;;;14.80;99.90;;;;;;5021784;27;20467;-69
2021/09/27 02:25:14;;;;;;;30.03;24.40;;;14.80;99.90;;;;;;5005702;28;20548;-69
2021/09/27 02:27:42;;;;;;;40.53;26.40;;;14.80;99.90;;;;;;5014086;27;20959;-69
2021/09/27 02:30:12;;;;;;;29.00;23.10;;;14.80;99.90;;;;;;5008360;28;20949;-69
2021/09/27 02:32:55;;;;;;;26.93;24.10;;;14.80;99.90;;;;;;5009666;28;20461;-69
2021/09/27 02:35:29;;;;;;;25.70;23.27;;;14.80;99.90;;;;;;5008525;28;20540;-69
2021/09/27 02:38:02;;;;;;;33.60;24.20;;;14.90;99.90;;;;;;5014017;28;20469;-69
2021/09/27 02:40:35;;;;;;;35.03;24.03;;;14.90;99.90;;;;;;5010492;28;20461;-69
2021/09/27 02:43:07;;;;;;;26.20;23.70;;;14.90;99.90;;;;;;5007849;28;20557;-69
2021/09/27 02:45:35;;;;;;;28.00;23.80;;;14.90;99.90;;;;;;5015340;28;20465;-70
2021/09/27 02:48:13;;;;;;;25.70;23.47;;;14.90;99.90;;;;;;5008480;28;20549;-70
2021/09/27 02:50:44;;;;;;;24.97;22.80;;;14.90;99.90;;;;;;5012849;28;20493;-71
2021/09/27 02:53:12;;;;;;;24.57;22.53;;;14.90;99.90;;;;;;5008721;28;20551;-71
2021/09/27 02:55:54;;;;;;;28.33;24.03;;;14.90;99.90;;;;;;5004573;28;20458;-69
2021/09/27 02:58:29;;;;;;;26.90;24.20;;;14.80;99.90;;;;;;5005859;28;21034;-70
2021/09/27 03:01:03;;;;;;;26.60;24.33;;;14.90;99.90;;;;;;5005598;28;20465;-69
2021/09/27 03:03:50;;;;;;;25.70;23.27;;;14.90;99.90;;;;;;5007485;28;20851;-69
2021/09/27 03:06:32;;;;;;;25.27;23.03;;;14.80;99.90;;;;;;5006705;28;20457;-68
2021/09/27 03:09:05;;;;;;;26.37;23.87;;;14.80;99.90;;;;;;5004510;28;20946;-71
2021/09/27 03:12:06;;;;;;;27.33;24.50;;;14.70;99.90;;;;;;5013922;28;20489;-69
2021/09/27 03:14:59;;;;;;;28.20;24.57;;;14.70;99.90;;;;;;5012766;27;20580;-68
2021/09/27 03:17:31;;;;;;;32.10;24.00;;;14.60;99.90;;;;;;5010991;28;20465;-68
2021/09/27 03:20:23;;;;;;;24.57;22.30;;;14.60;99.90;;;;;;5014713;28;20464;-71
2021/09/27 03:23:02;;;;;;;27.57;24.57;;;14.50;99.90;;;;;;5027610;27;20458;-71
2021/09/27 03:25:42;;;;;;;27.57;24.73;;;14.50;99.90;;;;;;5005034;28;20837;-69
2021/09/27 03:28:17;;;;;;;26.43;23.63;;;14.50;99.90;;;;;;5008273;28;20476;-69
2021/09/27 03:30:52;;;;;;;25.90;23.60;;;14.50;99.90;;;;;;5014005;28;20493;-71
2021/09/27 03:33:29;;;;;;;31.90;25.13;;;14.40;99.90;;;;;;5008721;28;20499;-68
2021/09/27 03:36:13;;;;;;;27.27;24.57;;;14.40;99.90;;;;;;5003711;28;20474;-69
2021/09/27 03:38:50;;;;;;;28.30;24.97;;;14.40;99.90;;;;;;5007717;28;20468;-69
2021/09/27 03:41:27;;;;;;;26.90;24.10;;;14.40;99.90;;;;;;5005802;28;20465;-70
2021/09/27 03:44:03;;;;;;;31.80;25.03;;;14.40;99.90;;;;;;5007079;28;20944;-68
2021/09/27 03:46:37;;;;;;;28.47;25.47;;;14.40;99.90;;;;;;5005193;28;20461;-72
2021/09/27 03:49:10;;;;;;;29.60;26.40;;;14.40;99.90;;;;;;5011501;28;20466;-69
2021/09/27 03:51:42;;;;;;;28.20;25.43;;;14.40;99.90;;;;;;5009618;28;20855;-68
2021/09/27 03:54:16;;;;;;;29.80;26.90;;;14.40;99.90;;;;;;5015834;28;20485;-69
2021/09/27 03:56:48;;;;;;;28.10;25.07;;;14.40;99.90;;;;;;5010223;28;20468;-72
2021/09/27 03:59:19;;;;;;;28.87;24.97;;;14.40;99.90;;;;;;5010602;28;20553;-68
2021/09/27 04:01:56;;;;;;;26.83;24.47;;;14.40;99.90;;;;;;5008945;28;20453;-68
2021/09/27 04:04:35;;;;;;;26.27;23.90;;;14.40;99.90;;;;;;5009549;28;20508;-71
2021/09/27 04:07:20;;;;;;;27.53;24.30;;;14.50;99.90;;;;;;5010428;28;20973;-69
2021/09/27 04:09:57;;;;;;;28.87;25.13;;;14.50;99.90;;;;;;5016080;28;20466;-70
2021/09/27 04:12:33;;;;;;;33.33;25.03;;;14.50;99.90;;;;;;5013090;28;20562;-69
2021/09/27 04:15:07;;;;;;;32.10;23.90;;;14.50;99.90;;;;;;5007088;28;20965;-69
2021/09/27 04:17:58;;;;;;;32.63;24.83;;;14.60;99.90;;;;;;5008831;28;20468;-69
2021/09/27 04:20:33;;;;;;;33.10;24.50;;;14.60;99.90;;;;;;5008592;28;20454;-69
2021/09/27 04:23:08;;;;;;;28.93;22.83;;;14.70;99.90;;;;;;5011188;28;20464;-69
2021/09/27 04:25:44;;;;;;;26.50;23.97;;;14.80;99.90;;;;;;5010053;28;20816;-71
2021/09/27 04:28:29;;;;;;;32.00;24.27;;;14.90;99.90;;;;;;5008597;28;20458;-69
2021/09/27 04:31:15;;;;;;;29.67;23.13;;;15.00;99.90;;;;;;5004420;28;20477;-71
2021/09/27 04:33:54;;;;;;;28.43;25.70;;;15.10;99.90;;;;;;5009850;28;20968;-68
2021/09/27 04:36:24;;;;;;;26.93;24.20;;;15.20;99.90;;;;;;5012869;28;20596;-69
2021/09/27 04:38:54;;;;;;;26.37;23.77;;;15.20;99.90;;;;;;5010658;28;20462;-69
2021/09/27 04:42:10;;;;;;;26.60;24.07;;;15.20;99.90;;;;;;5010377;28;20454;-69
2021/09/27 04:44:59;;;;;;;26.17;22.53;;;15.20;99.90;;;;;;4935903;28;20456;-69
2021/09/27 04:47:32;;;;;;;41.13;26.70;;;15.30;99.90;;;;;;5011557;28;20453;-69
2021/09/27 04:50:08;;;;;;;26.63;24.30;;;15.30;99.90;;;;;;5014331;28;20461;-70
2021/09/27 04:52:48;;;;;;;26.80;23.53;;;15.40;99.90;;;;;;5011598;28;21232;-68
2021/09/27 04:55:34;;;;;;;26.00;23.37;;;15.50;99.90;;;;;;5008838;28;20457;-70
2021/09/27 04:58:16;;;;;;;24.80;22.50;;;15.50;99.90;;;;;;5022146;28;20458;-72
2021/09/27 05:00:58;;;;;;;24.80;22.80;;;15.60;99.90;;;;;;5017434;28;20461;-69
2021/09/27 05:03:49;;;;;;;24.53;22.33;;;15.50;99.90;;;;;;5013131;28;20620;-69
2021/09/27 05:06:47;;;;;;;25.27;22.90;;;15.50;99.90;;;;;;5009568;28;20465;-70
2021/09/27 05:09:27;;;;;;;27.30;23.70;;;15.50;99.90;;;;;;5012879;28;20800;-69
2021/09/27 05:12:11;;;;;;;29.10;23.20;;;15.40;99.90;;;;;;5015688;28;20495;-69
2021/09/27 05:14:54;;;;;;;25.27;22.83;;;15.40;99.90;;;;;;5006498;28;20488;-69
2021/09/27 05:17:33;;;;;;;24.87;22.67;;;15.30;99.90;;;;;;5015413;28;20473;-69
2021/09/27 05:20:31;;;;;;;38.00;23.87;;;15.30;99.90;;;;;;5022915;27;20468;-69
2021/09/27 05:23:06;;;;;;;27.27;24.47;;;15.20;99.90;;;;;;5033015;27;20458;-69
2021/09/27 05:25:56;;;;;;;26.63;22.87;;;15.20;99.90;;;;;;5012082;28;20464;-69
2021/09/27 05:28:35;;;;;;;27.43;23.10;;;15.10;99.90;;;;;;5011084;28;20458;-69
2021/09/27 05:31:18;;;;;;;28.00;24.40;;;15.00;99.90;;;;;;5006328;28;20975;-72
2021/09/27 05:33:54;;;;;;;25.90;23.37;;;15.00;99.90;;;;;;5007435;28;20541;-68
2021/09/27 05:36:39;;;;;;;26.07;23.53;;;14.90;99.90;;;;;;5010905;28;20468;-70
2021/09/27 05:39:13;;;;;;;25.07;22.70;;;14.90;99.90;;;;;;5009954;28;20465;-68
2021/09/27 05:41:54;;;;;;;31.37;23.83;;;14.90;99.90;;;;;;5008156;28;20461;-70
2021/09/27 05:44:34;;;;;;;36.57;22.97;;;14.90;99.90;;;;;;5016355;28;20457;-71
2021/09/27 05:47:13;;;;;;;26.73;22.30;;;14.90;99.90;;;;;;5016391;28;20974;-69
2021/09/27 05:49:51;;;;;;;38.20;23.60;;;14.90;99.90;;;;;;5009935;28;20457;-68
2021/09/27 05:52:26;;;;;;;26.77;22.70;;;14.90;99.90;;;;;;5010989;28;20489;-69
2021/09/27 05:55:01;;;;;;;25.43;22.40;;;14.90;99.90;;;;;;5012795;28;20467;-69
2021/09/27 05:57:36;;;;;;;25.20;22.83;;;14.90;99.90;;;;;;5010940;28;20823;-69
2021/09/27 06:00:13;;;;;;;25.17;22.50;;;14.90;99.90;;;;;;5008934;28;20545;-70
2021/09/27 06:02:56;;;;;;;26.73;24.07;;;14.90;99.90;;;;;;5002768;28;20986;-69
2021/09/27 06:05:29;;;;;;;29.93;23.47;;;15.00;99.90;;;;;;5013497;28;20820;-72
2021/09/27 06:08:03;;;;;;;32.30;22.60;;;15.00;99.90;;;;;;5009983;28;20464;-69
2021/09/27 06:10:38;;;;;;;28.10;23.80;;;15.10;99.90;;;;;;5009926;28;20469;-72
2021/09/27 06:13:13;;;;;;;30.10;24.07;;;15.10;99.90;;;;;;5013735;28;20485;-68
2021/09/27 06:15:46;;;;;;;31.37;23.57;;;15.20;99.90;;;;;;5008749;28;20838;-69
2021/09/27 06:18:26;;;;;;;28.23;24.13;;;15.20;99.90;;;;;;5007984;28;20457;-69
2021/09/27 06:21:03;;;;;;;26.13;23.73;;;15.30;99.90;;;;;;5009898;28;20828;-69
2021/09/27 06:23:46;;;;;;;28.10;24.47;;;15.30;99.90;;;;;;5012017;27;20458;-69
2021/09/27 06:26:15;;;;;;;26.87;24.17;;;15.40;99.90;;;;;;5009275;28;20671;-69
2021/09/27 06:28:51;;;;;;;27.17;24.30;;;15.40;99.90;;;;;;5010168;28;20457;-69
2021/09/27 06:31:25;;;;;;;32.27;24.30;;;15.50;99.90;;;;;;5008920;28;20454;-69
2021/09/27 06:33:59;;;;;;;28.33;25.43;;;15.60;99.90;;;;;;5008067;28;20585;-69
2021/09/27 06:36:32;;;;;;;25.30;22.90;;;15.60;99.90;;;;;;5009218;28;20452;-69
2021/09/27 06:39:02;;;;;;;43.97;23.73;;;15.70;99.90;;;;;;5012483;28;20487;-73
2021/09/27 06:41:33;;;;;;;34.60;25.47;;;15.80;99.90;;;;;;5010101;28;20458;-68
2021/09/27 06:44:00;;;;;;;26.33;23.00;;;15.90;99.90;;;;;;5009686;28;20920;-69
2021/09/27 06:46:27;;;;;;;25.00;22.50;;;15.90;99.90;;;;;;5009304;28;20999;-68
2021/09/27 06:48:54;;;;;;;30.47;25.53;;;16.00;99.90;;;;;;5003181;28;20551;-72
2021/09/27 06:51:22;;;;;;;25.43;22.80;;;16.00;99.90;;;;;;5009697;28;20457;-68
2021/09/27 06:53:51;;;;;;;35.87;24.00;;;16.00;99.90;;;;;;5010724;27;20619;-69
2021/09/27 06:56:18;;;;;;;26.20;23.27;;;16.00;99.90;;;;;;5009805;28;20453;-70
2021/09/27 06:58:45;;;;;;;25.80;23.37;;;16.10;99.90;;;;;;5009552;28;20500;-68
2021/09/27 07:01:13;;;;;;;26.30;23.53;;;16.10;99.90;;;;;;5005116;28;20473;-70
2021/09/27 07:03:41;;;;;;;30.00;24.70;;;16.20;99.90;;;;;;5002434;28;20572;-68
2021/09/27 07:06:07;;;;;;;25.93;23.53;;;16.30;99.90;;;;;;5004864;28;20458;-69
2021/09/27 07:08:34;;;;;;;31.07;23.03;;;16.50;99.90;;;;;;5006363;28;20461;-71
2021/09/27 07:11:03;;;;;;;29.73;24.60;;;16.60;99.90;;;;;;5006666;28;20458;-72
2021/09/27 07:13:30;;;;;;;31.40;23.80;;;16.70;99.90;;;;;;5010004;28;20512;-68
2021/09/27 07:15:57;;;;;;;29.73;24.00;;;16.80;99.90;;;;;;5010859;28;20453;-70
2021/09/27 07:18:24;;;;;;;35.40;25.07;;;16.90;99.90;;;;;;5007268;28;20461;-71
2021/09/27 07:20:50;;;;;;;28.07;23.30;;;17.10;99.90;;;;;;5011335;28;21042;-69
2021/09/27 07:23:17;;;;;;;30.07;23.43;;;17.20;99.90;;;;;;5013355;28;20469;-67
2021/09/27 07:25:44;;;;;;;32.53;23.73;;;17.20;99.90;;;;;;5006883;28;20470;-67
2021/09/27 07:28:12;;;;;;;31.33;24.67;;;17.30;99.90;;;;;;5002916;28;20687;-68
2021/09/27 07:30:40;;;;;;;29.93;24.00;;;17.40;99.90;;;;;;5005430;28;20537;-71
2021/09/27 07:33:07;;;;;;;24.90;22.80;;;17.70;99.90;;;;;;5017265;28;20493;-71
2021/09/27 07:35:35;;;;;;;25.80;22.73;;;17.90;99.90;;;;;;5011402;28;20461;-68
2021/09/27 07:38:01;;;;;;;32.90;22.97;;;18.20;99.90;;;;;;5006958;28;20863;-68
2021/09/27 07:40:30;;;;;;;24.30;22.20;;;18.40;99.90;;;;;;5010728;28;20484;-67
2021/09/27 07:42:58;;;;;;;24.47;22.43;;;18.50;99.90;;;;;;5007428;28;20462;-68
2021/09/27 07:45:33;;;;;;;26.77;23.50;;;18.50;99.90;;;;;;5010454;28;20468;-68
2021/09/27 07:48:00;;;;;;;25.83;22.10;;;18.70;99.90;;;;;;5010940;28;20489;-72
2021/09/27 07:50:27;;;;;;;25.10;22.77;;;18.90;99.90;;;;;;5007016;28;20949;-68
2021/09/27 07:52:54;;;;;;;24.07;21.50;;;18.90;99.90;;;;;;5009120;28;20489;-71
2021/09/27 07:55:21;;;;;;;24.80;22.77;;;18.90;99.90;;;;;;5002194;28;20465;-68
2021/09/27 07:57:48;;;;;;;24.13;22.13;;;18.90;99.90;;;;;;5007590;28;20453;-67
2021/09/27 08:00:18;;;;;;;25.93;23.23;;;19.20;99.90;;;;;;5004848;28;20689;-68
2021/09/27 08:02:47;;;;;;;25.00;22.63;;;19.20;99.90;;;;;;5003480;28;20462;-68
2021/09/27 08:05:16;;;;;;;23.90;22.00;;;19.40;99.90;;;;;;5007568;28;21147;-68
2021/09/27 08:07:42;;;;;;;25.23;22.53;;;19.40;99.90;;;;;;5009828;28;20832;-71
2021/09/27 08:10:11;;;;;;;24.13;21.77;;;19.60;99.90;;;;;;5017943;27;20460;-67
2021/09/27 08:12:39;;;;;;;25.90;22.27;;;19.60;99.90;;;;;;5013282;28;20497;-67
2021/09/27 08:15:09;;;;;;;22.17;20.40;;;19.90;99.90;;;;;;5015092;28;20569;-70
2021/09/27 08:17:37;;;;;;;23.63;21.63;;;20.10;99.90;;;;;;5012010;28;20958;-67
2021/09/27 08:20:08;;;;;;;23.90;21.77;;;20.10;99.90;;;;;;5006274;28;20944;-69
2021/09/27 08:22:34;;;;;;;23.00;21.30;;;20.10;99.90;;;;;;5013889;28;20449;-68
2021/09/27 08:25:02;;;;;;;24.43;21.70;;;20.30;99.90;;;;;;5009199;28;20449;-67
2021/09/27 08:27:29;;;;;;;23.67;21.60;;;20.20;99.90;;;;;;5010928;28;20463;-69
2021/09/27 08:29:57;;;;;;;22.37;20.17;;;20.40;99.90;;;;;;5014255;28;20461;-69
2021/09/27 08:32:24;;;;;;;21.63;19.90;;;20.70;99.90;;;;;;5013168;28;20492;-71
2021/09/27 08:34:53;;;;;;;21.53;19.93;;;20.90;99.90;;;;;;5014308;28;20627;-68
2021/09/27 08:37:22;;;;;;;21.50;19.80;;;20.90;99.90;;;;;;5013105;28;20501;-69
2021/09/27 08:39:49;;;;;;;22.53;20.20;;;21.00;99.90;;;;;;5008122;28;20469;-69
2021/09/27 08:42:21;;;;;;;23.30;20.03;;;20.90;99.90;;;;;;5017798;28;20974;-67
2021/09/27 08:44:51;;;;;;;20.67;18.80;;;21.00;99.90;;;;;;5011637;28;20462;-67
2021/09/27 08:47:26;;;;;;;20.93;19.13;;;21.00;99.90;;;;;;5015281;28;20454;-67
2021/09/27 08:49:57;;;;;;;21.20;19.60;;;21.00;99.90;;;;;;5012534;28;21100;-69
2021/09/27 08:52:30;;;;;;;21.20;19.70;;;21.10;99.90;;;;;;5013603;28;20492;-69
2021/09/27 08:54:58;;;;;;;20.37;18.87;;;21.20;99.90;;;;;;5011696;28;20460;-68
2021/09/27 08:57:45;;;;;;;20.43;19.13;;;21.40;99.90;;;;;;5017365;28;20540;-67
2021/09/27 09:00:27;;;;;;;19.07;17.57;;;21.60;99.90;;;;;;5009197;28;20453;-68
2021/09/27 09:03:01;;;;;;;19.93;18.03;;;21.80;99.90;;;;;;5011304;28;21112;-67
2021/09/27 09:05:35;;;;;;;18.80;17.33;;;22.00;99.90;;;;;;5015921;28;20456;-68
2021/09/27 09:08:08;;;;;;;19.30;17.80;;;22.00;99.90;;;;;;5011823;28;20465;-68
2021/09/27 09:10:56;;;;;;;19.33;17.63;;;22.10;99.90;;;;;;5012500;28;20484;-71
2021/09/27 09:13:30;;;;;;;19.50;17.80;;;22.10;99.90;;;;;;5012199;28;20493;-71
2021/09/27 09:16:01;;;;;;;19.17;17.67;;;22.40;99.90;;;;;;5016186;28;20545;-68
2021/09/27 09:18:34;;;;;;;19.63;18.03;;;22.50;99.90;;;;;;5017291;28;20454;-72
2021/09/27 09:21:07;;;;;;;20.17;18.57;;;22.50;99.90;;;;;;5016240;28;20449;-67
2021/09/27 09:23:41;;;;;;;18.77;17.37;;;22.40;99.90;;;;;;5025163;27;20454;-67
2021/09/27 09:26:12;;;;;;;20.63;18.40;;;22.20;99.90;;;;;;5015074;28;20453;-67
2021/09/27 09:28:40;;;;;;;18.47;17.13;;;22.00;99.90;;;;;;5015257;28;20466;-68
2021/09/27 09:31:13;;;;;;;19.43;17.80;;;22.10;99.90;;;;;;5015104;28;20442;-67
2021/09/27 09:33:46;;;;;;;17.83;16.77;;;22.10;99.90;;;;;;5011056;28;20497;-68
2021/09/27 09:36:16;;;;;;;19.23;17.60;;;22.10;99.90;;;;;;5012500;28;20549;-68
2021/09/27 09:38:48;;;;;;;18.50;17.30;;;22.10;99.90;;;;;;5014624;28;20452;-68
2021/09/27 09:41:16;;;;;;;19.00;17.23;;;21.90;99.90;;;;;;5015872;27;20499;-69
2021/09/27 09:43:46;;;;;;;19.17;17.20;;;22.00;99.90;;;;;;5007005;28;20454;-67
2021/09/27 09:46:16;;;;;;;18.63;17.10;;;22.10;99.90;;;;;;5012784;28;20469;-71
2021/09/27 09:49:04;;;;;;;17.70;16.60;;;22.20;99.90;;;;;;5006115;28;20461;-68
2021/09/27 09:51:38;;;;;;;19.67;17.77;;;22.40;99.90;;;;;;5008577;28;20450;-67
2021/09/27 09:54:16;;;;;;;28.73;17.20;;;22.60;99.90;;;;;;5011854;28;20490;-69
2021/09/27 09:57:01;;;;;;;22.00;16.40;;;22.70;99.90;;;;;;5014927;28;20457;-70
2021/09/27 09:59:33;;;;;;;20.13;16.87;;;22.90;99.90;;;;;;5015639;28;20456;-69
2021/09/27 10:02:01;;;;;;;17.30;16.30;;;23.10;99.90;;;;;;5012732;28;20465;-68
2021/09/27 10:04:31;;;;;;;16.97;15.87;;;23.10;99.90;;;;;;5011117;28;20499;-67
2021/09/27 10:07:05;;;;;;;17.50;15.47;;;23.30;99.90;;;;;;5007161;28;21011;-67
2021/09/27 10:09:37;;;;;;;16.60;15.17;;;23.70;99.90;;;;;;5013709;28;20449;-67
2021/09/27 10:12:07;;;;;;;14.00;13.10;;;23.70;99.90;;;;;;5018055;28;20476;-67
2021/09/27 10:14:37;;;;;;;15.20;14.20;;;23.60;99.90;;;;;;5009215;28;20501;-68
2021/09/27 10:17:27;;;;;;;15.20;14.40;;;23.50;99.90;;;;;;5014694;28;21262;-67
2021/09/27 10:19:58;;;;;;;15.23;14.23;;;23.40;99.90;;;;;;5014997;28;20491;-67
2021/09/27 10:22:35;;;;;;;14.80;14.07;;;23.50;99.90;;;;;;5022072;27;20458;-70
2021/09/27 10:25:26;;;;;;;15.00;13.90;;;23.50;99.90;;;;;;5012322;28;20505;-69
2021/09/27 10:27:53;;;;;;;15.00;14.07;;;23.60;99.90;;;;;;5015955;28;20461;-70
2021/09/27 10:30:24;;;;;;;15.20;14.40;;;23.50;99.90;;;;;;5015878;28;20453;-71
2021/09/27 10:32:55;;;;;;;14.23;13.53;;;23.50;99.90;;;;;;5006164;28;20972;-68
2021/09/27 10:35:29;;;;;;;14.87;13.87;;;23.30;99.90;;;;;;5012324;28;20453;-68
2021/09/27 10:38:02;;;;;;;14.40;13.70;;;23.20;99.90;;;;;;5016431;28;20457;-68
2021/09/27 10:40:32;;;;;;;15.07;13.70;;;23.00;99.90;;;;;;5014558;28;20631;-67
2021/09/27 10:43:01;;;;;;;14.93;13.70;;;23.10;99.90;;;;;;5012221;28;20452;-67
2021/09/27 10:45:31;;;;;;;14.47;13.67;;;23.00;99.90;;;;;;5015018;28;20475;-70
2021/09/27 10:48:00;;;;;;;14.60;13.63;;;23.20;99.90;;;;;;5016476;28;20932;-67
2021/09/27 10:50:30;;;;;;;14.37;13.67;;;23.00;99.90;;;;;;5011635;28;20466;-68
2021/09/27 10:53:04;;;;;;;14.87;13.87;;;23.20;99.90;;;;;;5018510;28;20505;-68
2021/09/27 10:55:48;;;;;;;15.37;14.37;;;23.00;99.90;;;;;;5006471;28;20476;-71
2021/09/27 10:58:31;;;;;;;15.07;13.93;;;22.80;99.90;;;;;;5013753;28;20497;-69
2021/09/27 11:00:58;;;;;;;14.57;13.67;;;22.80;99.90;;;;;;5012433;28;21061;-68
2021/09/27 11:03:30;;;;;;;14.90;13.77;;;22.80;99.90;;;;;;5011208;28;20488;-68
2021/09/27 11:06:01;;;;;;;14.50;13.80;;;23.10;99.90;;;;;;5012390;28;20450;-70
2021/09/27 11:08:41;;;;;;;15.23;14.07;;;23.80;99.90;;;;;;5011478;28;20493;-69
2021/09/27 11:11:40;;;;;;;14.90;13.90;;;24.30;99.90;;;;;;5020528;28;20460;-69
2021/09/27 11:14:42;;;;;;;15.40;14.70;;;24.30;99.90;;;;;;5004191;28;20545;-71
2021/09/27 11:17:20;;;;;;;15.00;14.00;;;24.20;99.90;;;;;;5008059;28;20539;-68
2021/09/27 11:20:17;;;;;;;14.20;13.50;;;24.50;99.90;;;;;;5013855;28;20963;-68
2021/09/27 11:23:18;;;;;;;14.90;13.97;;;25.10;99.90;;;;;;5023403;27;20458;-67
2021/09/27 11:25:49;;;;;;;14.40;13.50;;;25.40;99.90;;;;;;5015178;28;20465;-67
2021/09/27 11:28:40;;;;;;;14.53;13.63;;;25.70;99.90;;;;;;5014210;28;20501;-70
2021/09/27 11:31:36;;;;;;;14.70;13.93;;;26.10;99.90;;;;;;5012799;28;20822;-69
2021/09/27 11:34:32;;;;;;;14.00;13.40;;;26.90;99.90;;;;;;5012494;28;21059;-68
2021/09/27 11:37:17;;;;;;;14.17;13.53;;;26.80;99.90;;;;;;5012110;28;20493;-71
2021/09/27 11:39:51;;;;;;;14.50;13.80;;;26.10;99.90;;;;;;5010443;28;20473;-68
2021/09/27 11:42:47;;;;;;;14.83;13.97;;;24.90;99.90;;;;;;5013566;28;20461;-68
2021/09/27 11:45:33;;;;;;;15.03;14.07;;;24.30;99.90;;;;;;5009431;28;20855;-70
2021/09/27 11:48:09;;;;;;;14.70;13.70;;;24.10;99.90;;;;;;5005034;28;20469;-68
2021/09/27 11:51:19;;;;;;;14.87;13.87;;;24.40;99.90;;;;;;5009806;28;20462;-69
2021/09/27 11:54:06;;;;;;;14.40;13.60;;;24.50;99.90;;;;;;5012376;28;21042;-69
2021/09/27 11:56:48;;;;;;;14.10;13.40;;;24.80;99.90;;;;;;5013205;28;20955;-68
2021/09/27 11:59:22;;;;;;;14.50;13.70;;;24.70;99.90;;;;;;5011282;28;20952;-68
2021/09/27 12:01:57;;;;;;;14.37;13.67;;;24.50;99.90;;;;;;5016279;28;20460;-70
2021/09/27 12:04:42;;;;;;;14.43;13.63;;;24.30;99.90;;;;;;5012636;28;20497;-68
2021/09/27 12:07:14;;;;;;;15.37;14.23;;;24.00;99.90;;;;;;5010359;28;20449;-70
2021/09/27 12:09:45;;;;;;;14.23;13.43;;;23.80;99.90;;;;;;5011257;28;20464;-68
2021/09/27 12:12:24;;;;;;;14.17;13.57;;;23.70;99.90;;;;;;5012088;28;20511;-69
2021/09/27 12:14:52;;;;;;;15.00;14.10;;;23.60;99.90;;;;;;5009889;28;20500;-69
2021/09/27 12:17:21;;;;;;;14.30;13.60;;;23.70;99.90;;;;;;5017712;28;20449;-70
2021/09/27 12:19:52;;;;;;;14.30;13.50;;;23.70;99.90;;;;;;5011185;28;20464;-68
2021/09/27 12:22:22;;;;;;;14.93;13.90;;;23.80;99.90;;;;;;5011451;28;20462;-69
2021/09/27 12:24:52;;;;;;;13.50;12.80;;;23.80;99.90;;;;;;5010605;28;20468;-69
2021/09/27 12:27:23;;;;;;;14.43;13.43;;;23.90;99.90;;;;;;5012688;28;20700;-68
2021/09/27 12:29:52;;;;;;;14.10;13.30;;;23.80;99.90;;;;;;5009878;28;20454;-69
2021/09/27 12:32:29;;;;;;;14.70;13.90;;;23.70;99.90;;;;;;5011265;28;20864;-69
2021/09/27 12:35:00;;;;;;;13.93;13.33;;;23.50;99.90;;;;;;5010020;28;20491;-68
2021/09/27 12:37:33;;;;;;;14.33;13.63;;;23.50;99.90;;;;;;5011217;28;20836;-68
2021/09/27 12:40:02;;;;;;;17.43;13.57;;;23.40;99.90;;;;;;5014385;28;20461;-68
2021/09/27 12:42:39;;;;;;;14.57;13.57;;;23.50;99.90;;;;;;5013051;28;20465;-69
2021/09/27 12:45:15;;;;;;;14.23;13.50;;;23.40;99.90;;;;;;5012662;28;20537;-70
2021/09/27 12:47:43;;;;;;;13.97;13.37;;;23.30;99.90;;;;;;5012559;28;20955;-71
2021/09/27 12:50:12;;;;;;;13.90;13.13;;;23.30;99.90;;;;;;5010308;28;21043;-68
2021/09/27 12:52:44;;;;;;;14.63;13.83;;;23.20;99.90;;;;;;5014889;28;20453;-68
2021/09/27 12:55:13;;;;;;;14.93;14.13;;;23.10;99.90;;;;;;5018419;28;20476;-68
2021/09/27 12:57:47;;;;;;;14.80;13.70;;;23.00;99.90;;;;;;5011609;28;20468;-69
2021/09/27 13:00:21;;;;;;;13.47;12.87;;;23.20;99.90;;;;;;5015732;28;20461;-71
2021/09/27 13:02:49;;;;;;;13.30;12.60;;;23.40;99.90;;;;;;5014134;28;20465;-71
2021/09/27 13:05:20;;;;;;;13.97;13.27;;;23.40;99.90;;;;;;5015798;28;20459;-69
2021/09/27 13:07:49;;;;;;;15.17;13.50;;;23.50;99.90;;;;;;5016470;28;20970;-70